sensor_id;sensor_type;location;lat;lon;timestamp;P1;durP1;ratioP1;P2;durP2;ratioP2
8909;SDS011;4490;49.072;8.804;2023-03-23T00:01:02;1.27;;;1.17;;
8909;SDS011;4490;49.072;8.804;2023-03-23T00:03:30;1.43;;;1.33;;
8909;SDS011;4490;49.072;8.804;2023-03-23T00:05:57;2.07;;;1.30;;
8909;SDS011;4490;49.072;8.804;2023-03-23T00:08:31;1.83;;;1.40;;
8909;SDS011;4490;49.072;8.804;2023-03-23T00:10:58;1.50;;;1.40;;
8909;SDS011;4490;49.072;8.804;2023-03-23T00:13:26;1.60;;;1.30;;
8909;SDS011;4490;49.072;8.804;2023-03-23T00:15:53;1.83;;;1.10;;
8909;SDS011;4490;49.072;8.804;2023-03-23T00:18:21;1.50;;;1.40;;
8909;SDS011;4490;49.072;8.804;2023-03-23T00:20:49;1.30;;;1.20;;
8909;SDS011;4490;49.072;8.804;2023-03-23T00:23:19;1.57;;;1.30;;
8909;SDS011;4490;49.072;8.804;2023-03-23T00:25:48;1.50;;;1.40;;
8909;SDS011;4490;49.072;8.804;2023-03-23T00:28:15;2.07;;;1.57;;
8909;SDS011;4490;49.072;8.804;2023-03-23T00:30:42;2.40;;;1.50;;
8909;SDS011;4490;49.072;8.804;2023-03-23T00:33:09;2.50;;;1.50;;
8909;SDS011;4490;49.072;8.804;2023-03-23T00:35:37;2.77;;;1.30;;
8909;SDS011;4490;49.072;8.804;2023-03-23T00:38:04;2.40;;;1.37;;
8909;SDS011;4490;49.072;8.804;2023-03-23T00:40:30;1.50;;;1.30;;
8909;SDS011;4490;49.072;8.804;2023-03-23T00:42:56;1.63;;;1.53;;
8909;SDS011;4490;49.072;8.804;2023-03-23T00:45:22;1.60;;;1.40;;
8909;SDS011;4490;49.072;8.804;2023-03-23T00:47:49;3.30;;;1.50;;
8909;SDS011;4490;49.072;8.804;2023-03-23T00:50:16;2.27;;;1.40;;
8909;SDS011;4490;49.072;8.804;2023-03-23T00:52:42;1.73;;;1.40;;
8909;SDS011;4490;49.072;8.804;2023-03-23T00:55:08;1.70;;;1.60;;
8909;SDS011;4490;49.072;8.804;2023-03-23T00:57:34;2.10;;;1.47;;
8909;SDS011;4490;49.072;8.804;2023-03-23T01:00:00;1.53;;;1.43;;
8909;SDS011;4490;49.072;8.804;2023-03-23T01:02:26;1.87;;;1.70;;
8909;SDS011;4490;49.072;8.804;2023-03-23T01:04:51;2.13;;;1.40;;
8909;SDS011;4490;49.072;8.804;2023-03-23T01:07:17;1.50;;;1.40;;
8909;SDS011;4490;49.072;8.804;2023-03-23T01:09:45;2.13;;;1.50;;
8909;SDS011;4490;49.072;8.804;2023-03-23T01:12:12;1.60;;;1.40;;
8909;SDS011;4490;49.072;8.804;2023-03-23T01:14:37;1.50;;;1.40;;
8909;SDS011;4490;49.072;8.804;2023-03-23T01:17:03;2.63;;;1.53;;
8909;SDS011;4490;49.072;8.804;2023-03-23T01:19:29;1.50;;;1.40;;
8909;SDS011;4490;49.072;8.804;2023-03-23T01:21:55;2.20;;;1.40;;
8909;SDS011;4490;49.072;8.804;2023-03-23T01:24:20;3.10;;;1.80;;
8909;SDS011;4490;49.072;8.804;2023-03-23T01:26:46;1.40;;;1.30;;
8909;SDS011;4490;49.072;8.804;2023-03-23T01:29:12;1.60;;;1.50;;
8909;SDS011;4490;49.072;8.804;2023-03-23T01:31:38;1.47;;;1.30;;
8909;SDS011;4490;49.072;8.804;2023-03-23T01:34:04;1.70;;;1.60;;
8909;SDS011;4490;49.072;8.804;2023-03-23T01:36:30;2.27;;;1.47;;
8909;SDS011;4490;49.072;8.804;2023-03-23T01:38:58;2.30;;;1.90;;
8909;SDS011;4490;49.072;8.804;2023-03-23T01:41:29;1.83;;;1.60;;
8909;SDS011;4490;49.072;8.804;2023-03-23T01:43:59;2.20;;;1.60;;
8909;SDS011;4490;49.072;8.804;2023-03-23T01:46:29;1.93;;;1.40;;
8909;SDS011;4490;49.072;8.804;2023-03-23T01:48:58;2.43;;;1.87;;
8909;SDS011;4490;49.072;8.804;2023-03-23T01:51:33;2.03;;;1.63;;
8909;SDS011;4490;49.072;8.804;2023-03-23T01:54:06;1.60;;;1.50;;
8909;SDS011;4490;49.072;8.804;2023-03-23T01:56:38;2.70;;;1.70;;
8909;SDS011;4490;49.072;8.804;2023-03-23T01:59:07;1.53;;;1.43;;
8909;SDS011;4490;49.072;8.804;2023-03-23T02:01:34;1.90;;;1.40;;
8909;SDS011;4490;49.072;8.804;2023-03-23T02:04:03;1.53;;;1.43;;
8909;SDS011;4490;49.072;8.804;2023-03-23T02:06:30;1.97;;;1.60;;
8909;SDS011;4490;49.072;8.804;2023-03-23T02:08:56;1.60;;;1.50;;
8909;SDS011;4490;49.072;8.804;2023-03-23T02:11:22;1.73;;;1.63;;
8909;SDS011;4490;49.072;8.804;2023-03-23T02:13:48;2.30;;;1.70;;
8909;SDS011;4490;49.072;8.804;2023-03-23T02:27:31;1.63;;;1.53;;
8909;SDS011;4490;49.072;8.804;2023-03-23T02:35:36;1.67;;;1.50;;
8909;SDS011;4490;49.072;8.804;2023-03-23T02:38:09;1.70;;;1.60;;
8909;SDS011;4490;49.072;8.804;2023-03-23T02:40:42;1.60;;;1.50;;
8909;SDS011;4490;49.072;8.804;2023-03-23T02:43:12;1.83;;;1.57;;
8909;SDS011;4490;49.072;8.804;2023-03-23T02:45:40;1.87;;;1.50;;
8909;SDS011;4490;49.072;8.804;2023-03-23T02:48:08;1.90;;;1.60;;
8909;SDS011;4490;49.072;8.804;2023-03-23T02:50:35;1.67;;;1.43;;
8909;SDS011;4490;49.072;8.804;2023-03-23T02:53:02;2.00;;;1.80;;
8909;SDS011;4490;49.072;8.804;2023-03-23T02:55:32;3.50;;;3.00;;
8909;SDS011;4490;49.072;8.804;2023-03-23T02:57:59;3.00;;;1.80;;
8909;SDS011;4490;49.072;8.804;2023-03-23T03:00:28;1.70;;;1.60;;
8909;SDS011;4490;49.072;8.804;2023-03-23T03:02:54;3.17;;;1.80;;
8909;SDS011;4490;49.072;8.804;2023-03-23T03:07:54;1.80;;;1.60;;
8909;SDS011;4490;49.072;8.804;2023-03-23T03:10:37;1.63;;;1.53;;
8909;SDS011;4490;49.072;8.804;2023-03-23T03:13:22;1.80;;;1.70;;
8909;SDS011;4490;49.072;8.804;2023-03-23T03:15:57;1.97;;;1.60;;
8909;SDS011;4490;49.072;8.804;2023-03-23T03:19:13;1.90;;;1.50;;
8909;SDS011;4490;49.072;8.804;2023-03-23T03:21:21;1.60;;;1.50;;
8909;SDS011;4490;49.072;8.804;2023-03-23T03:23:50;2.13;;;1.63;;
8909;SDS011;4490;49.072;8.804;2023-03-23T03:26:19;1.97;;;1.60;;
8909;SDS011;4490;49.072;8.804;2023-03-23T03:28:46;2.17;;;1.47;;
8909;SDS011;4490;49.072;8.804;2023-03-23T03:31:13;1.53;;;1.43;;
8909;SDS011;4490;49.072;8.804;2023-03-23T03:33:43;3.23;;;1.67;;
8909;SDS011;4490;49.072;8.804;2023-03-23T03:36:14;2.57;;;1.67;;
8909;SDS011;4490;49.072;8.804;2023-03-23T03:38:45;2.17;;;1.80;;
8909;SDS011;4490;49.072;8.804;2023-03-23T03:41:13;2.10;;;1.60;;
8909;SDS011;4490;49.072;8.804;2023-03-23T03:43:39;2.30;;;1.60;;
8909;SDS011;4490;49.072;8.804;2023-03-23T03:46:05;3.10;;;1.93;;
8909;SDS011;4490;49.072;8.804;2023-03-23T03:48:31;2.27;;;1.97;;
8909;SDS011;4490;49.072;8.804;2023-03-23T03:50:57;3.50;;;1.63;;
8909;SDS011;4490;49.072;8.804;2023-03-23T03:53:25;1.63;;;1.50;;
8909;SDS011;4490;49.072;8.804;2023-03-23T03:55:51;1.57;;;1.47;;
8909;SDS011;4490;49.072;8.804;2023-03-23T03:58:20;1.70;;;1.60;;
8909;SDS011;4490;49.072;8.804;2023-03-23T04:00:46;2.03;;;1.40;;
8909;SDS011;4490;49.072;8.804;2023-03-23T04:03:13;1.80;;;1.70;;
8909;SDS011;4490;49.072;8.804;2023-03-23T04:05:39;4.03;;;2.00;;
8909;SDS011;4490;49.072;8.804;2023-03-23T04:08:05;2.60;;;1.53;;
8909;SDS011;4490;49.072;8.804;2023-03-23T04:10:31;1.67;;;1.50;;
8909;SDS011;4490;49.072;8.804;2023-03-23T04:12:58;3.17;;;1.60;;
8909;SDS011;4490;49.072;8.804;2023-03-23T04:15:24;2.37;;;1.50;;
8909;SDS011;4490;49.072;8.804;2023-03-23T04:17:51;2.93;;;1.50;;
8909;SDS011;4490;49.072;8.804;2023-03-23T04:20:16;3.70;;;1.70;;
8909;SDS011;4490;49.072;8.804;2023-03-23T04:22:43;3.33;;;1.60;;
8909;SDS011;4490;49.072;8.804;2023-03-23T04:25:10;3.13;;;2.00;;
8909;SDS011;4490;49.072;8.804;2023-03-23T04:27:38;2.27;;;1.50;;
8909;SDS011;4490;49.072;8.804;2023-03-23T04:30:08;2.17;;;1.70;;
8909;SDS011;4490;49.072;8.804;2023-03-23T04:32:35;2.13;;;1.73;;
8909;SDS011;4490;49.072;8.804;2023-03-23T04:35:05;1.90;;;1.70;;
8909;SDS011;4490;49.072;8.804;2023-03-23T04:37:31;2.77;;;1.60;;
8909;SDS011;4490;49.072;8.804;2023-03-23T04:39:59;3.07;;;1.50;;
8909;SDS011;4490;49.072;8.804;2023-03-23T04:42:29;2.77;;;1.80;;
8909;SDS011;4490;49.072;8.804;2023-03-23T04:44:56;1.87;;;1.77;;
8909;SDS011;4490;49.072;8.804;2023-03-23T04:47:23;2.50;;;1.63;;
8909;SDS011;4490;49.072;8.804;2023-03-23T04:49:54;1.90;;;1.80;;
8909;SDS011;4490;49.072;8.804;2023-03-23T04:52:21;2.63;;;1.90;;
8909;SDS011;4490;49.072;8.804;2023-03-23T04:54:47;2.33;;;1.83;;
8909;SDS011;4490;49.072;8.804;2023-03-23T04:57:13;2.20;;;2.00;;
8909;SDS011;4490;49.072;8.804;2023-03-23T04:59:42;2.00;;;1.80;;
8909;SDS011;4490;49.072;8.804;2023-03-23T05:02:08;3.77;;;1.90;;
8909;SDS011;4490;49.072;8.804;2023-03-23T05:04:35;1.90;;;1.80;;
8909;SDS011;4490;49.072;8.804;2023-03-23T05:07:02;2.53;;;2.23;;
8909;SDS011;4490;49.072;8.804;2023-03-23T05:09:28;1.90;;;1.80;;
8909;SDS011;4490;49.072;8.804;2023-03-23T05:11:54;1.60;;;1.50;;
8909;SDS011;4490;49.072;8.804;2023-03-23T05:14:20;2.20;;;1.80;;
8909;SDS011;4490;49.072;8.804;2023-03-23T05:16:46;2.20;;;1.60;;
8909;SDS011;4490;49.072;8.804;2023-03-23T05:19:13;2.17;;;1.80;;
8909;SDS011;4490;49.072;8.804;2023-03-23T05:21:40;1.60;;;1.50;;
8909;SDS011;4490;49.072;8.804;2023-03-23T05:24:05;2.27;;;1.80;;
8909;SDS011;4490;49.072;8.804;2023-03-23T05:26:31;2.37;;;2.00;;
8909;SDS011;4490;49.072;8.804;2023-03-23T05:28:57;2.23;;;1.63;;
8909;SDS011;4490;49.072;8.804;2023-03-23T05:31:23;1.90;;;1.80;;
8909;SDS011;4490;49.072;8.804;2023-03-23T05:33:49;2.83;;;1.80;;
8909;SDS011;4490;49.072;8.804;2023-03-23T05:36:16;2.43;;;1.80;;
8909;SDS011;4490;49.072;8.804;2023-03-23T05:38:42;1.93;;;1.83;;
8909;SDS011;4490;49.072;8.804;2023-03-23T05:41:10;2.67;;;1.80;;
8909;SDS011;4490;49.072;8.804;2023-03-23T05:43:36;2.20;;;1.80;;
8909;SDS011;4490;49.072;8.804;2023-03-23T05:46:02;2.50;;;2.20;;
8909;SDS011;4490;49.072;8.804;2023-03-23T05:48:28;2.20;;;1.83;;
8909;SDS011;4490;49.072;8.804;2023-03-23T05:50:53;2.40;;;1.90;;
8909;SDS011;4490;49.072;8.804;2023-03-23T05:53:19;2.70;;;1.90;;
8909;SDS011;4490;49.072;8.804;2023-03-23T05:55:45;1.93;;;1.83;;
8909;SDS011;4490;49.072;8.804;2023-03-23T05:58:11;3.23;;;1.90;;
8909;SDS011;4490;49.072;8.804;2023-03-23T06:00:37;2.23;;;1.90;;
8909;SDS011;4490;49.072;8.804;2023-03-23T06:03:04;2.33;;;1.77;;
8909;SDS011;4490;49.072;8.804;2023-03-23T06:05:30;2.20;;;2.00;;
8909;SDS011;4490;49.072;8.804;2023-03-23T06:07:57;3.17;;;1.87;;
8909;SDS011;4490;49.072;8.804;2023-03-23T06:10:24;2.63;;;2.00;;
8909;SDS011;4490;49.072;8.804;2023-03-23T06:12:50;2.27;;;2.07;;
8909;SDS011;4490;49.072;8.804;2023-03-23T06:15:16;2.17;;;1.90;;
8909;SDS011;4490;49.072;8.804;2023-03-23T06:17:43;2.43;;;2.03;;
8909;SDS011;4490;49.072;8.804;2023-03-23T06:20:10;2.60;;;2.00;;
8909;SDS011;4490;49.072;8.804;2023-03-23T06:22:37;4.40;;;2.20;;
8909;SDS011;4490;49.072;8.804;2023-03-23T06:25:05;3.07;;;2.57;;
8909;SDS011;4490;49.072;8.804;2023-03-23T06:27:31;4.27;;;2.10;;
8909;SDS011;4490;49.072;8.804;2023-03-23T06:29:57;3.27;;;2.30;;
8909;SDS011;4490;49.072;8.804;2023-03-23T06:32:26;2.40;;;2.10;;
8909;SDS011;4490;49.072;8.804;2023-03-23T06:34:55;2.13;;;2.00;;
8909;SDS011;4490;49.072;8.804;2023-03-23T06:37:22;3.37;;;2.10;;
8909;SDS011;4490;49.072;8.804;2023-03-23T06:39:48;6.20;;;2.03;;
8909;SDS011;4490;49.072;8.804;2023-03-23T06:42:14;2.63;;;2.27;;
8909;SDS011;4490;49.072;8.804;2023-03-23T06:44:39;3.30;;;2.50;;
8909;SDS011;4490;49.072;8.804;2023-03-23T06:47:05;3.43;;;2.00;;
8909;SDS011;4490;49.072;8.804;2023-03-23T06:49:32;2.67;;;2.40;;
8909;SDS011;4490;49.072;8.804;2023-03-23T06:51:58;3.00;;;2.30;;
8909;SDS011;4490;49.072;8.804;2023-03-23T06:54:26;3.77;;;2.40;;
8909;SDS011;4490;49.072;8.804;2023-03-23T06:56:52;2.57;;;2.30;;
8909;SDS011;4490;49.072;8.804;2023-03-23T06:59:17;5.10;;;2.80;;
8909;SDS011;4490;49.072;8.804;2023-03-23T07:01:44;4.27;;;2.60;;
8909;SDS011;4490;49.072;8.804;2023-03-23T07:04:11;4.07;;;2.97;;
8909;SDS011;4490;49.072;8.804;2023-03-23T07:06:37;3.83;;;2.97;;
8909;SDS011;4490;49.072;8.804;2023-03-23T07:09:02;5.40;;;2.63;;
8909;SDS011;4490;49.072;8.804;2023-03-23T07:11:28;3.20;;;2.70;;
8909;SDS011;4490;49.072;8.804;2023-03-23T07:13:54;2.47;;;2.27;;
8909;SDS011;4490;49.072;8.804;2023-03-23T07:16:20;3.23;;;2.77;;
8909;SDS011;4490;49.072;8.804;2023-03-23T07:18:46;3.47;;;2.53;;
8909;SDS011;4490;49.072;8.804;2023-03-23T07:21:11;4.13;;;2.70;;
8909;SDS011;4490;49.072;8.804;2023-03-23T07:23:37;2.90;;;2.10;;
8909;SDS011;4490;49.072;8.804;2023-03-23T07:26:03;3.60;;;2.30;;
8909;SDS011;4490;49.072;8.804;2023-03-23T07:28:29;3.80;;;2.47;;
8909;SDS011;4490;49.072;8.804;2023-03-23T07:30:55;3.37;;;2.47;;
8909;SDS011;4490;49.072;8.804;2023-03-23T07:33:20;3.97;;;2.20;;
8909;SDS011;4490;49.072;8.804;2023-03-23T07:35:47;5.27;;;2.50;;
8909;SDS011;4490;49.072;8.804;2023-03-23T07:38:13;3.33;;;2.13;;
8909;SDS011;4490;49.072;8.804;2023-03-23T07:40:39;2.37;;;1.73;;
8909;SDS011;4490;49.072;8.804;2023-03-23T07:43:05;3.70;;;2.93;;
8909;SDS011;4490;49.072;8.804;2023-03-23T07:45:32;3.90;;;2.40;;
8909;SDS011;4490;49.072;8.804;2023-03-23T07:47:58;4.47;;;2.60;;
8909;SDS011;4490;49.072;8.804;2023-03-23T07:50:25;3.53;;;2.23;;
8909;SDS011;4490;49.072;8.804;2023-03-23T07:52:53;4.63;;;2.37;;
8909;SDS011;4490;49.072;8.804;2023-03-23T07:55:19;2.60;;;2.40;;
8909;SDS011;4490;49.072;8.804;2023-03-23T07:57:46;3.57;;;2.47;;
8909;SDS011;4490;49.072;8.804;2023-03-23T08:00:13;4.10;;;2.73;;
8909;SDS011;4490;49.072;8.804;2023-03-23T08:02:44;4.13;;;2.40;;
8909;SDS011;4490;49.072;8.804;2023-03-23T08:05:10;3.80;;;2.77;;
8909;SDS011;4490;49.072;8.804;2023-03-23T08:07:38;5.80;;;2.90;;
8909;SDS011;4490;49.072;8.804;2023-03-23T08:10:05;3.30;;;2.53;;
8909;SDS011;4490;49.072;8.804;2023-03-23T08:12:35;3.23;;;2.80;;
8909;SDS011;4490;49.072;8.804;2023-03-23T08:15:02;5.67;;;2.90;;
8909;SDS011;4490;49.072;8.804;2023-03-23T08:17:28;2.97;;;2.60;;
8909;SDS011;4490;49.072;8.804;2023-03-23T08:19:53;3.27;;;2.80;;
8909;SDS011;4490;49.072;8.804;2023-03-23T08:22:19;3.53;;;2.50;;
8909;SDS011;4490;49.072;8.804;2023-03-23T08:24:46;2.90;;;2.60;;
8909;SDS011;4490;49.072;8.804;2023-03-23T08:27:11;7.10;;;2.90;;
8909;SDS011;4490;49.072;8.804;2023-03-23T08:29:37;7.43;;;2.80;;
8909;SDS011;4490;49.072;8.804;2023-03-23T08:32:03;3.63;;;2.57;;
8909;SDS011;4490;49.072;8.804;2023-03-23T08:34:29;5.77;;;2.90;;
8909;SDS011;4490;49.072;8.804;2023-03-23T08:36:56;2.77;;;2.57;;
8909;SDS011;4490;49.072;8.804;2023-03-23T08:39:21;4.53;;;2.63;;
8909;SDS011;4490;49.072;8.804;2023-03-23T08:41:48;4.03;;;2.60;;
8909;SDS011;4490;49.072;8.804;2023-03-23T08:44:14;3.70;;;2.70;;
8909;SDS011;4490;49.072;8.804;2023-03-23T08:46:40;2.73;;;2.53;;
8909;SDS011;4490;49.072;8.804;2023-03-23T08:49:06;2.70;;;2.50;;
8909;SDS011;4490;49.072;8.804;2023-03-23T08:51:32;3.17;;;2.50;;
8909;SDS011;4490;49.072;8.804;2023-03-23T08:53:58;3.67;;;2.57;;
8909;SDS011;4490;49.072;8.804;2023-03-23T08:56:24;3.23;;;2.50;;
8909;SDS011;4490;49.072;8.804;2023-03-23T08:58:49;5.33;;;2.40;;
8909;SDS011;4490;49.072;8.804;2023-03-23T09:01:15;4.53;;;2.60;;
8909;SDS011;4490;49.072;8.804;2023-03-23T09:03:41;4.07;;;2.50;;
8909;SDS011;4490;49.072;8.804;2023-03-23T09:06:08;4.17;;;2.40;;
8909;SDS011;4490;49.072;8.804;2023-03-23T09:08:37;3.43;;;2.37;;
8909;SDS011;4490;49.072;8.804;2023-03-23T09:11:03;4.70;;;2.40;;
8909;SDS011;4490;49.072;8.804;2023-03-23T09:13:31;4.33;;;2.73;;
8909;SDS011;4490;49.072;8.804;2023-03-23T09:15:57;2.83;;;2.60;;
8909;SDS011;4490;49.072;8.804;2023-03-23T09:18:23;2.50;;;2.30;;
8909;SDS011;4490;49.072;8.804;2023-03-23T09:20:49;3.03;;;2.60;;
8909;SDS011;4490;49.072;8.804;2023-03-23T09:23:16;3.37;;;2.50;;
8909;SDS011;4490;49.072;8.804;2023-03-23T09:25:42;4.10;;;2.50;;
8909;SDS011;4490;49.072;8.804;2023-03-23T09:28:08;2.93;;;2.50;;
8909;SDS011;4490;49.072;8.804;2023-03-23T09:30:34;5.37;;;3.00;;
8909;SDS011;4490;49.072;8.804;2023-03-23T09:33:01;5.27;;;2.80;;
8909;SDS011;4490;49.072;8.804;2023-03-23T09:35:28;3.77;;;2.80;;
8909;SDS011;4490;49.072;8.804;2023-03-23T09:37:56;5.30;;;3.13;;
8909;SDS011;4490;49.072;8.804;2023-03-23T09:40:30;7.43;;;6.00;;
8909;SDS011;4490;49.072;8.804;2023-03-23T09:48:55;3.03;;;2.83;;
8909;SDS011;4490;49.072;8.804;2023-03-23T09:51:44;2.87;;;2.40;;
8909;SDS011;4490;49.072;8.804;2023-03-23T09:56:54;4.53;;;2.80;;
8909;SDS011;4490;49.072;8.804;2023-03-23T09:59:27;2.93;;;2.30;;
8909;SDS011;4490;49.072;8.804;2023-03-23T10:05:22;3.27;;;2.30;;
8909;SDS011;4490;49.072;8.804;2023-03-23T10:07:52;2.47;;;2.20;;
8909;SDS011;4490;49.072;8.804;2023-03-23T10:10:18;2.50;;;2.30;;
8909;SDS011;4490;49.072;8.804;2023-03-23T10:13:05;4.70;;;2.27;;
8909;SDS011;4490;49.072;8.804;2023-03-23T10:15:39;2.97;;;2.00;;
8909;SDS011;4490;49.072;8.804;2023-03-23T10:18:15;2.80;;;2.07;;
8909;SDS011;4490;49.072;8.804;2023-03-23T10:21:01;2.60;;;2.20;;
8909;SDS011;4490;49.072;8.804;2023-03-23T10:28:51;2.80;;;2.37;;
8909;SDS011;4490;49.072;8.804;2023-03-23T10:31:23;2.83;;;2.53;;
8909;SDS011;4490;49.072;8.804;2023-03-23T10:33:54;3.67;;;2.30;;
8909;SDS011;4490;49.072;8.804;2023-03-23T10:36:34;3.17;;;2.60;;
8909;SDS011;4490;49.072;8.804;2023-03-23T10:39:21;2.57;;;2.37;;
8909;SDS011;4490;49.072;8.804;2023-03-23T10:41:49;3.13;;;2.50;;
8909;SDS011;4490;49.072;8.804;2023-03-23T10:44:19;2.30;;;2.10;;
8909;SDS011;4490;49.072;8.804;2023-03-23T10:46:51;3.83;;;2.47;;
8909;SDS011;4490;49.072;8.804;2023-03-23T10:49:21;2.57;;;2.37;;
8909;SDS011;4490;49.072;8.804;2023-03-23T10:51:53;2.13;;;1.83;;
8909;SDS011;4490;49.072;8.804;2023-03-23T10:54:35;3.63;;;2.10;;
8909;SDS011;4490;49.072;8.804;2023-03-23T10:57:12;1.93;;;1.77;;
8909;SDS011;4490;49.072;8.804;2023-03-23T10:59:45;2.23;;;2.03;;
8909;SDS011;4490;49.072;8.804;2023-03-23T11:02:15;3.67;;;1.90;;
8909;SDS011;4490;49.072;8.804;2023-03-23T11:05:02;3.03;;;2.23;;
8909;SDS011;4490;49.072;8.804;2023-03-23T11:07:32;3.87;;;2.20;;
8909;SDS011;4490;49.072;8.804;2023-03-23T11:10:17;2.00;;;1.83;;
8909;SDS011;4490;49.072;8.804;2023-03-23T11:12:51;2.30;;;1.80;;
8909;SDS011;4490;49.072;8.804;2023-03-23T11:15:23;2.30;;;1.97;;
8909;SDS011;4490;49.072;8.804;2023-03-23T11:17:57;1.77;;;1.67;;
8909;SDS011;4490;49.072;8.804;2023-03-23T11:20:26;1.90;;;1.70;;
8909;SDS011;4490;49.072;8.804;2023-03-23T11:22:54;3.07;;;2.07;;
8909;SDS011;4490;49.072;8.804;2023-03-23T11:25:20;2.20;;;2.10;;
8909;SDS011;4490;49.072;8.804;2023-03-23T11:27:46;2.33;;;1.77;;
8909;SDS011;4490;49.072;8.804;2023-03-23T11:30:21;3.20;;;1.70;;
8909;SDS011;4490;49.072;8.804;2023-03-23T11:32:50;2.40;;;1.93;;
8909;SDS011;4490;49.072;8.804;2023-03-23T11:35:19;2.33;;;1.83;;
8909;SDS011;4490;49.072;8.804;2023-03-23T11:37:56;3.20;;;1.83;;
8909;SDS011;4490;49.072;8.804;2023-03-23T11:40:25;2.87;;;1.80;;
8909;SDS011;4490;49.072;8.804;2023-03-23T11:45:24;2.27;;;2.07;;
8909;SDS011;4490;49.072;8.804;2023-03-23T11:47:55;2.23;;;1.70;;
8909;SDS011;4490;49.072;8.804;2023-03-23T11:50:32;2.60;;;2.10;;
8909;SDS011;4490;49.072;8.804;2023-03-23T11:56:00;2.10;;;1.90;;
8909;SDS011;4490;49.072;8.804;2023-03-23T11:58:38;2.00;;;1.80;;
8909;SDS011;4490;49.072;8.804;2023-03-23T12:03:55;2.20;;;2.00;;
8909;SDS011;4490;49.072;8.804;2023-03-23T12:06:44;2.60;;;2.27;;
8909;SDS011;4490;49.072;8.804;2023-03-23T12:12:17;2.33;;;2.10;;
8909;SDS011;4490;49.072;8.804;2023-03-23T12:28:33;2.60;;;2.13;;
8909;SDS011;4490;49.072;8.804;2023-03-23T12:36:35;2.90;;;2.50;;
8909;SDS011;4490;49.072;8.804;2023-03-23T12:49:38;2.53;;;2.33;;
8909;SDS011;4490;49.072;8.804;2023-03-23T12:52:23;2.80;;;2.47;;
8909;SDS011;4490;49.072;8.804;2023-03-23T12:57:57;2.87;;;2.50;;
8909;SDS011;4490;49.072;8.804;2023-03-23T13:00:46;2.97;;;2.30;;
8909;SDS011;4490;49.072;8.804;2023-03-23T13:06:40;2.87;;;2.60;;
8909;SDS011;4490;49.072;8.804;2023-03-23T13:11:47;4.27;;;2.83;;
8909;SDS011;4490;49.072;8.804;2023-03-23T13:17:10;3.00;;;2.70;;
8909;SDS011;4490;49.072;8.804;2023-03-23T13:28:28;3.47;;;2.73;;
8909;SDS011;4490;49.072;8.804;2023-03-23T13:33:21;4.87;;;3.00;;
8909;SDS011;4490;49.072;8.804;2023-03-23T13:35:48;3.40;;;2.67;;
8909;SDS011;4490;49.072;8.804;2023-03-23T13:38:21;3.60;;;2.73;;
8909;SDS011;4490;49.072;8.804;2023-03-23T13:40:50;3.67;;;2.70;;
8909;SDS011;4490;49.072;8.804;2023-03-23T13:43:33;4.67;;;2.83;;
8909;SDS011;4490;49.072;8.804;2023-03-23T13:48:45;3.40;;;2.50;;
8909;SDS011;4490;49.072;8.804;2023-03-23T13:56:41;3.03;;;2.80;;
8909;SDS011;4490;49.072;8.804;2023-03-23T13:59:32;4.80;;;3.93;;
8909;SDS011;4490;49.072;8.804;2023-03-23T14:04:55;8.53;;;6.43;;
8909;SDS011;4490;49.072;8.804;2023-03-23T14:07:21;5.60;;;4.63;;
8909;SDS011;4490;49.072;8.804;2023-03-23T14:09:49;4.17;;;3.77;;
8909;SDS011;4490;49.072;8.804;2023-03-23T14:12:19;4.93;;;4.43;;
8909;SDS011;4490;49.072;8.804;2023-03-23T14:14:56;8.13;;;7.33;;
8909;SDS011;4490;49.072;8.804;2023-03-23T14:17:31;9.43;;;8.50;;
8909;SDS011;4490;49.072;8.804;2023-03-23T14:20:00;4.43;;;3.37;;
8909;SDS011;4490;49.072;8.804;2023-03-23T14:22:33;3.40;;;3.07;;
8909;SDS011;4490;49.072;8.804;2023-03-23T14:25:16;5.13;;;3.37;;
8909;SDS011;4490;49.072;8.804;2023-03-23T14:27:43;3.30;;;3.00;;
8909;SDS011;4490;49.072;8.804;2023-03-23T14:30:14;4.67;;;3.00;;
8909;SDS011;4490;49.072;8.804;2023-03-23T14:32:42;3.53;;;2.93;;
8909;SDS011;4490;49.072;8.804;2023-03-23T14:35:30;5.40;;;2.80;;
8909;SDS011;4490;49.072;8.804;2023-03-23T14:37:56;4.47;;;2.97;;
8909;SDS011;4490;49.072;8.804;2023-03-23T14:40:23;3.30;;;3.00;;
8909;SDS011;4490;49.072;8.804;2023-03-23T14:42:53;3.70;;;2.97;;
8909;SDS011;4490;49.072;8.804;2023-03-23T14:45:20;5.93;;;3.17;;
8909;SDS011;4490;49.072;8.804;2023-03-23T14:47:49;3.37;;;2.97;;
8909;SDS011;4490;49.072;8.804;2023-03-23T14:50:27;4.13;;;3.17;;
8909;SDS011;4490;49.072;8.804;2023-03-23T14:52:59;4.70;;;2.90;;
8909;SDS011;4490;49.072;8.804;2023-03-23T14:55:27;4.30;;;2.80;;
8909;SDS011;4490;49.072;8.804;2023-03-23T14:57:56;4.40;;;3.23;;
8909;SDS011;4490;49.072;8.804;2023-03-23T15:00:35;4.30;;;2.90;;
8909;SDS011;4490;49.072;8.804;2023-03-23T15:03:05;3.27;;;2.97;;
8909;SDS011;4490;49.072;8.804;2023-03-23T15:05:36;4.50;;;3.10;;
8909;SDS011;4490;49.072;8.804;2023-03-23T15:08:06;4.50;;;3.43;;
8909;SDS011;4490;49.072;8.804;2023-03-23T15:10:37;3.50;;;2.93;;
8909;SDS011;4490;49.072;8.804;2023-03-23T15:13:03;4.50;;;3.07;;
8909;SDS011;4490;49.072;8.804;2023-03-23T15:15:30;4.47;;;3.50;;
8909;SDS011;4490;49.072;8.804;2023-03-23T15:17:57;4.50;;;3.00;;
8909;SDS011;4490;49.072;8.804;2023-03-23T15:22:55;5.00;;;3.37;;
8909;SDS011;4490;49.072;8.804;2023-03-23T15:28:06;4.07;;;3.10;;
8909;SDS011;4490;49.072;8.804;2023-03-23T15:33:35;3.57;;;3.20;;
8909;SDS011;4490;49.072;8.804;2023-03-23T15:36:07;4.40;;;2.90;;
8909;SDS011;4490;49.072;8.804;2023-03-23T15:38:34;3.20;;;2.90;;
8909;SDS011;4490;49.072;8.804;2023-03-23T15:41:04;3.90;;;3.00;;
8909;SDS011;4490;49.072;8.804;2023-03-23T15:51:25;3.73;;;2.50;;
8909;SDS011;4490;49.072;8.804;2023-03-23T15:53:52;3.07;;;2.80;;
8909;SDS011;4490;49.072;8.804;2023-03-23T15:56:19;3.67;;;2.70;;
8909;SDS011;4490;49.072;8.804;2023-03-23T15:58:45;3.53;;;3.07;;
8909;SDS011;4490;49.072;8.804;2023-03-23T16:01:12;5.07;;;2.70;;
8909;SDS011;4490;49.072;8.804;2023-03-23T16:03:45;7.90;;;2.80;;
8909;SDS011;4490;49.072;8.804;2023-03-23T16:06:14;5.97;;;3.40;;
8909;SDS011;4490;49.072;8.804;2023-03-23T16:08:41;4.90;;;3.50;;
8909;SDS011;4490;49.072;8.804;2023-03-23T16:11:10;6.73;;;3.50;;
8909;SDS011;4490;49.072;8.804;2023-03-23T16:13:36;3.80;;;3.50;;
8909;SDS011;4490;49.072;8.804;2023-03-23T16:16:03;5.23;;;3.40;;
8909;SDS011;4490;49.072;8.804;2023-03-23T16:18:29;4.00;;;3.60;;
8909;SDS011;4490;49.072;8.804;2023-03-23T16:20:55;4.13;;;3.53;;
8909;SDS011;4490;49.072;8.804;2023-03-23T16:23:21;4.27;;;3.83;;
8909;SDS011;4490;49.072;8.804;2023-03-23T16:25:47;5.13;;;3.60;;
8909;SDS011;4490;49.072;8.804;2023-03-23T16:28:13;4.80;;;3.50;;
8909;SDS011;4490;49.072;8.804;2023-03-23T16:30:40;4.60;;;4.17;;
8909;SDS011;4490;49.072;8.804;2023-03-23T16:33:07;6.60;;;4.03;;
8909;SDS011;4490;49.072;8.804;2023-03-23T16:35:33;6.37;;;3.80;;
8909;SDS011;4490;49.072;8.804;2023-03-23T16:37:58;4.80;;;4.13;;
8909;SDS011;4490;49.072;8.804;2023-03-23T16:40:24;5.30;;;4.30;;
8909;SDS011;4490;49.072;8.804;2023-03-23T16:42:51;7.03;;;4.70;;
8909;SDS011;4490;49.072;8.804;2023-03-23T16:45:17;8.37;;;3.93;;
8909;SDS011;4490;49.072;8.804;2023-03-23T16:47:43;4.30;;;3.90;;
8909;SDS011;4490;49.072;8.804;2023-03-23T16:50:10;5.10;;;4.60;;
8909;SDS011;4490;49.072;8.804;2023-03-23T16:52:39;5.50;;;4.37;;
8909;SDS011;4490;49.072;8.804;2023-03-23T16:55:06;7.57;;;4.27;;
8909;SDS011;4490;49.072;8.804;2023-03-23T16:57:33;6.17;;;3.83;;
8909;SDS011;4490;49.072;8.804;2023-03-23T17:00:02;4.57;;;4.13;;
8909;SDS011;4490;49.072;8.804;2023-03-23T17:02:30;5.70;;;4.00;;
8909;SDS011;4490;49.072;8.804;2023-03-23T17:04:56;4.70;;;3.17;;
8909;SDS011;4490;49.072;8.804;2023-03-23T17:07:23;4.13;;;3.47;;
8909;SDS011;4490;49.072;8.804;2023-03-23T17:09:49;3.57;;;3.23;;
8909;SDS011;4490;49.072;8.804;2023-03-23T17:12:15;5.50;;;3.27;;
8909;SDS011;4490;49.072;8.804;2023-03-23T17:14:41;4.33;;;3.50;;
8909;SDS011;4490;49.072;8.804;2023-03-23T17:17:07;3.90;;;3.50;;
8909;SDS011;4490;49.072;8.804;2023-03-23T17:19:34;5.53;;;4.13;;
8909;SDS011;4490;49.072;8.804;2023-03-23T17:21:59;5.10;;;4.40;;
8909;SDS011;4490;49.072;8.804;2023-03-23T17:24:25;6.63;;;5.60;;
8909;SDS011;4490;49.072;8.804;2023-03-23T17:26:51;7.10;;;5.70;;
8909;SDS011;4490;49.072;8.804;2023-03-23T17:29:18;7.40;;;5.00;;
8909;SDS011;4490;49.072;8.804;2023-03-23T17:31:43;5.73;;;4.83;;